Time;durP1;ratioP1;P1;durP2;ratioP2;P2;SDS_P1;SDS_P2;PMS_P1;PMS_P2;Temp;Humidity;BMP_temperature;BMP_pressure;BME280_temperature;BME280_humidity;BME280_pressure;Samples;Min_cycle;Max_cycle;Signal;HPM_P1;HPM_P2
2021/01/28 00:01:26;;;;;;;3.60;1.70;;;-1.00;99.90;;;;;;5042488;28;20366;-64
2021/01/28 00:03:53;;;;;;;5.50;2.10;;;-1.00;99.90;;;;;;5034909;28;20412;-65
2021/01/28 00:06:18;;;;;;;2.70;2.10;;;-1.00;99.90;;;;;;5042194;28;20045;-64
2021/01/28 00:08:45;;;;;;;3.55;1.20;;;-1.00;99.90;;;;;;5037138;28;20064;-70
2021/01/28 00:11:12;;;;;;;2.78;1.50;;;-1.00;99.90;;;;;;5042190;28;20053;-69
2021/01/28 00:13:39;;;;;;;1.48;1.23;;;-1.00;99.90;;;;;;5040058;28;20050;-66
2021/01/28 00:16:05;;;;;;;3.65;1.50;;;-1.00;99.90;;;;;;5040272;28;20118;-69
2021/01/28 00:18:33;;;;;;;6.28;1.30;;;-1.00;99.90;;;;;;5039293;28;20041;-66
2021/01/28 00:20:59;;;;;;;7.03;1.85;;;-0.90;99.90;;;;;;5036869;28;20033;-67
2021/01/28 00:23:26;;;;;;;2.35;1.00;;;-1.00;99.90;;;;;;5037820;28;20123;-66
2021/01/28 00:25:52;;;;;;;5.68;3.92;;;-1.00;99.90;;;;;;5039844;28;20055;-69
2021/01/28 00:28:20;;;;;;;3.42;2.65;;;-1.00;99.90;;;;;;5036878;28;20137;-67
2021/01/28 00:30:50;;;;;;;2.22;1.48;;;-1.00;99.90;;;;;;5038462;28;20063;-67
2021/01/28 00:33:23;;;;;;;1.30;1.20;;;-0.90;99.90;;;;;;5040433;28;20045;-70
2021/01/28 00:35:52;;;;;;;3.85;2.70;;;-0.90;99.90;;;;;;5035416;28;20069;-64
2021/01/28 00:38:23;;;;;;;2.55;1.65;;;-0.90;99.90;;;;;;5039986;28;20040;-66
2021/01/28 00:40:50;;;;;;;2.28;1.60;;;-1.00;99.90;;;;;;5035348;28;20049;-69
2021/01/28 00:43:18;;;;;;;1.67;1.52;;;-1.00;99.90;;;;;;5042128;28;20218;-65
2021/01/28 00:45:45;;;;;;;2.17;2.03;;;-1.00;99.90;;;;;;5039651;28;20056;-65
2021/01/28 00:48:13;;;;;;;3.70;2.13;;;-0.90;99.90;;;;;;5035385;28;20071;-65
2021/01/28 00:50:41;;;;;;;2.72;1.85;;;-0.90;99.90;;;;;;5035328;28;20647;-66
2021/01/28 00:53:10;;;;;;;2.85;2.03;;;-0.90;99.90;;;;;;5040510;28;20136;-67
2021/01/28 00:55:40;;;;;;;3.50;2.13;;;-0.90;99.90;;;;;;5039361;28;20388;-65
2021/01/28 00:58:15;;;;;;;1.92;1.73;;;-0.90;99.90;;;;;;5036794;28;20037;-69
2021/01/28 01:00:44;;;;;;;6.07;2.05;;;-0.90;99.90;;;;;;5049970;28;20045;-69
2021/01/28 01:03:15;;;;;;;1.83;1.23;;;-0.90;99.90;;;;;;5035325;28;20083;-65
2021/01/28 01:05:46;;;;;;;2.47;1.80;;;-0.90;99.90;;;;;;5036966;28;20076;-64
2021/01/28 01:08:18;;;;;;;3.80;2.03;;;-0.90;99.90;;;;;;5043267;28;20056;-64
2021/01/28 01:10:54;;;;;;;3.60;1.55;;;-0.80;99.90;;;;;;5037765;28;20049;-69
2021/01/28 01:13:24;;;;;;;2.20;1.75;;;-0.80;99.90;;;;;;5036693;28;21052;-64
2021/01/28 01:16:00;;;;;;;1.30;0.88;;;-0.90;99.90;;;;;;5035868;28;20040;-70
2021/01/28 01:18:30;;;;;;;2.97;1.35;;;-0.90;99.90;;;;;;5036384;28;20048;-69
2021/01/28 01:20:58;;;;;;;1.65;1.13;;;-0.80;99.90;;;;;;5041133;28;20045;-68
2021/01/28 01:23:27;;;;;;;2.72;1.40;;;-0.80;99.90;;;;;;5035582;28;20524;-66
2021/01/28 01:26:04;;;;;;;1.58;1.20;;;-0.80;99.90;;;;;;5033215;28;20140;-68
2021/01/28 01:28:31;;;;;;;2.22;1.10;;;-0.80;99.90;;;;;;5032556;28;20118;-66
2021/01/28 01:31:04;;;;;;;2.13;1.08;;;-0.80;99.90;;;;;;5036409;28;20055;-69
2021/01/28 01:33:33;;;;;;;3.80;2.97;;;-0.80;99.90;;;;;;5035534;28;20040;-64
2021/01/28 01:36:06;;;;;;;1.20;1.10;;;-0.80;99.90;;;;;;5041189;28;20044;-70
2021/01/28 01:38:37;;;;;;;2.13;1.20;;;-0.80;99.90;;;;;;5029674;28;20064;-69
2021/01/28 01:41:05;;;;;;;2.65;0.90;;;-0.80;99.90;;;;;;5049101;28;20051;-64
2021/01/28 01:43:33;;;;;;;1.85;1.08;;;-0.80;99.90;;;;;;5034522;28;20045;-68
2021/01/28 01:46:10;;;;;;;2.05;1.77;;;-0.80;99.90;;;;;;5030660;28;20408;-65
2021/01/28 01:48:48;;;;;;;1.98;0.82;;;-0.80;99.90;;;;;;5030366;28;20138;-66
2021/01/28 01:51:43;;;;;;;1.95;1.15;;;-0.80;99.90;;;;;;5043222;28;20044;-63
2021/01/28 01:54:46;;;;;;;1.60;1.00;;;-0.80;99.90;;;;;;5031116;28;20681;-66
2021/01/28 01:57:31;;;;;;;7.38;1.38;;;-0.80;99.90;;;;;;5035741;28;20060;-65
2021/01/28 02:00:17;;;;;;;1.13;0.85;;;-0.80;99.90;;;;;;5052669;28;20128;-65
2021/01/28 02:02:49;;;;;;;1.75;1.40;;;-0.80;99.90;;;;;;5034232;28;20057;-67
2021/01/28 02:05:38;;;;;;;1.05;0.82;;;-0.80;99.90;;;;;;5039084;28;20502;-64
2021/01/28 02:08:23;;;;;;;2.20;1.35;;;-0.80;99.90;;;;;;5034467;28;20175;-65
2021/01/28 02:10:56;;;;;;;2.20;1.65;;;-0.70;99.90;;;;;;5035513;28;20048;-69
2021/01/28 02:13:38;;;;;;;2.53;1.67;;;-0.70;99.90;;;;;;5032608;28;20067;-67
2021/01/28 02:16:19;;;;;;;5.15;2.38;;;-0.70;99.90;;;;;;5037397;28;20045;-69
2021/01/28 02:19:14;;;;;;;2.78;2.13;;;-0.60;99.90;;;;;;5030310;28;20041;-64
2021/01/28 02:21:41;;;;;;;4.75;2.10;;;-0.60;99.90;;;;;;5035058;28;20095;-66
2021/01/28 02:24:31;;;;;;;2.38;2.20;;;-0.60;99.90;;;;;;5033887;28;20056;-65
2021/01/28 02:26:59;;;;;;;3.70;2.40;;;-0.60;99.90;;;;;;5036970;28;21000;-64
2021/01/28 02:29:46;;;;;;;5.13;1.77;;;-0.60;99.90;;;;;;5034191;28;20808;-64
2021/01/28 02:32:14;;;;;;;3.78;2.25;;;-0.60;99.90;;;;;;5036937;28;20044;-64
2021/01/28 02:34:46;;;;;;;4.00;2.72;;;-0.50;99.90;;;;;;5034081;28;20061;-64
2021/01/28 02:37:22;;;;;;;2.10;1.90;;;-0.60;99.90;;;;;;5036974;28;20139;-63
2021/01/28 02:39:58;;;;;;;2.70;2.50;;;-0.60;99.90;;;;;;5044123;28;20072;-63
2021/01/28 02:42:45;;;;;;;3.03;2.63;;;-0.50;99.90;;;;;;5033213;28;20053;-64
2021/01/28 02:45:17;;;;;;;;;;;-0.50;99.90;;;;;;5034745;28;20040;-64
2021/01/28 02:48:10;;;;;;;2.47;1.88;;;-0.50;99.90;;;;;;5038903;28;20012;-64
2021/01/28 02:50:47;;;;;;;7.32;4.13;;;-0.50;99.90;;;;;;5027681;28;20056;-66
2021/01/28 02:53:15;;;;;;;2.42;2.17;;;-0.50;99.90;;;;;;5039135;28;20052;-64
2021/01/28 02:55:46;;;;;;;2.25;1.95;;;-0.50;99.90;;;;;;5033250;28;20049;-66
2021/01/28 02:58:12;;;;;;;4.75;2.58;;;-0.50;99.90;;;;;;5037445;28;20075;-66
2021/01/28 03:00:51;;;;;;;3.05;2.03;;;-0.50;99.90;;;;;;5032685;28;20126;-66
2021/01/28 03:03:17;;;;;;;5.90;2.35;;;-0.50;99.90;;;;;;5039390;28;20602;-65
2021/01/28 03:05:49;;;;;;;4.53;2.30;;;-0.50;99.90;;;;;;5035873;28;21025;-65
2021/01/28 03:08:18;;;;;;;4.15;3.42;;;-0.40;99.90;;;;;;5034573;28;20079;-65
2021/01/28 03:10:46;;;;;;;5.25;2.33;;;-0.40;99.90;;;;;;5033537;28;20050;-64
2021/01/28 03:13:22;;;;;;;2.75;2.22;;;-0.40;99.90;;;;;;5037173;28;20048;-65
2021/01/28 03:16:11;;;;;;;2.70;2.47;;;-0.40;99.90;;;;;;5030433;28;20045;-65
2021/01/28 03:18:57;;;;;;;2.88;2.40;;;-0.30;99.90;;;;;;5039573;28;20590;-66
2021/01/28 03:21:23;;;;;;;3.05;2.75;;;-0.30;99.90;;;;;;5034112;28;21140;-65
2021/01/28 03:24:06;;;;;;;5.53;2.45;;;-0.30;99.90;;;;;;5040080;28;20546;-66
2021/01/28 03:26:39;;;;;;;5.18;1.90;;;-0.30;99.90;;;;;;5036294;28;20434;-68
2021/01/28 03:29:06;;;;;;;5.43;2.03;;;-0.30;99.90;;;;;;5035252;28;20071;-70
2021/01/28 03:31:39;;;;;;;4.00;1.83;;;-0.30;99.90;;;;;;5049526;28;20041;-64
2021/01/28 03:34:08;;;;;;;5.13;2.15;;;-0.20;99.90;;;;;;5036888;28;21210;-68
2021/01/28 03:36:35;;;;;;;2.15;1.63;;;-0.20;99.90;;;;;;5037920;28;20144;-66
2021/01/28 03:39:06;;;;;;;2.88;1.70;;;-0.20;99.90;;;;;;5037106;28;20091;-68
2021/01/28 03:41:33;;;;;;;1.88;1.30;;;-0.20;99.90;;;;;;5041013;28;20044;-63
2021/01/28 03:44:01;;;;;;;2.83;1.40;;;-0.20;99.90;;;;;;5037825;28;21573;-65
2021/01/28 03:46:28;;;;;;;3.88;1.55;;;-0.20;99.90;;;;;;5034594;28;20067;-67
2021/01/28 03:48:55;;;;;;;1.40;1.25;;;-0.10;99.90;;;;;;5034380;28;20048;-64
2021/01/28 03:51:37;;;;;;;1.45;1.23;;;-0.10;99.90;;;;;;5069640;28;20053;-65
2021/01/28 03:54:30;;;;;;;1.15;1.05;;;0.00;99.90;;;;;;5033653;28;20972;-66
2021/01/28 03:57:07;;;;;;;1.42;0.98;;;0.00;99.90;;;;;;5036687;28;20128;-66
2021/01/28 03:59:40;;;;;;;1.60;1.30;;;0.00;99.90;;;;;;5054080;28;20096;-65
2021/01/28 04:02:19;;;;;;;1.95;1.42;;;0.00;99.90;;;;;;5037097;28;20041;-64
2021/01/28 04:05:06;;;;;;;1.83;1.02;;;0.10;99.90;;;;;;5037600;28;20369;-64
2021/01/28 04:07:55;;;;;;;;;;;0.10;99.90;;;;;;5036294;28;20048;-64
2021/01/28 04:10:32;;;;;;;1.83;1.02;;;0.10;99.90;;;;;;5036220;28;20015;-66
2021/01/28 04:13:01;;;;;;;1.27;1.15;;;0.20;99.90;;;;;;5037166;28;20040;-66
2021/01/28 04:15:36;;;;;;;1.67;1.10;;;0.20;99.90;;;;;;5036150;28;20135;-67
2021/01/28 04:18:06;;;;;;;2.45;1.00;;;0.20;99.90;;;;;;5045332;28;20145;-67
2021/01/28 04:20:39;;;;;;;1.20;1.10;;;0.20;99.90;;;;;;5034548;28;20041;-68
2021/01/28 04:23:11;;;;;;;0.90;0.77;;;0.20;99.90;;;;;;5036979;28;20052;-64
2021/01/28 04:25:56;;;;;;;1.63;0.95;;;0.20;99.90;;;;;;5035662;28;20056;-67
2021/01/28 04:28:23;;;;;;;0.63;0.63;;;0.20;99.90;;;;;;5039256;28;20772;-64
2021/01/28 04:31:25;;;;;;;1.05;0.63;;;0.30;99.90;;;;;;4997782;28;20038;-64
2021/01/28 04:33:55;;;;;;;1.73;0.80;;;0.20;99.90;;;;;;5030037;28;20152;-70
2021/01/28 04:36:25;;;;;;;0.50;0.50;;;0.30;99.90;;;;;;5033997;28;20047;-67
2021/01/28 04:39:11;;;;;;;0.88;0.50;;;0.30;99.90;;;;;;5037449;28;20064;-70
2021/01/28 04:41:40;;;;;;;0.93;0.63;;;0.30;99.90;;;;;;5036950;28;20149;-64
2021/01/28 04:44:07;;;;;;;0.68;0.60;;;0.30;99.90;;;;;;5056038;28;20061;-66
2021/01/28 04:46:44;;;;;;;0.40;0.40;;;0.30;99.90;;;;;;5033662;28;20045;-70
2021/01/28 04:49:31;;;;;;;0.52;0.40;;;0.30;99.90;;;;;;5036176;28;20052;-66
2021/01/28 04:52:40;;;;;;;0.40;0.40;;;0.30;99.90;;;;;;4997042;28;20074;-67
2021/01/28 04:55:44;;;;;;;0.60;0.40;;;0.30;99.90;;;;;;5034606;28;20060;-64
2021/01/28 04:58:12;;;;;;;0.50;0.50;;;0.30;99.90;;;;;;5035638;28;20044;-69
2021/01/28 05:00:57;;;;;;;0.60;0.40;;;0.30;99.90;;;;;;5037320;28;20059;-64
2021/01/28 05:03:54;;;;;;;0.22;0.22;;;0.40;99.90;;;;;;5035724;28;20076;-67
2021/01/28 05:06:37;;;;;;;0.30;0.30;;;0.40;99.90;;;;;;5036156;28;20143;-68
2021/01/28 05:09:22;;;;;;;1.98;0.30;;;0.40;99.90;;;;;;5037743;28;20060;-67
2021/01/28 05:12:07;;;;;;;0.68;0.40;;;0.40;99.90;;;;;;5032583;28;20064;-67
2021/01/28 05:14:36;;;;;;;0.70;0.50;;;0.40;99.90;;;;;;5034003;28;20045;-66
2021/01/28 05:17:32;;;;;;;0.40;0.30;;;0.50;99.90;;;;;;5028896;28;20487;-69
2021/01/28 05:20:22;;;;;;;1.52;0.50;;;0.40;99.90;;;;;;5016994;28;20076;-67
2021/01/28 05:23:02;;;;;;;0.38;0.30;;;0.50;99.90;;;;;;5028629;28;20124;-66
2021/01/28 05:25:41;;;;;;;;;;;0.50;99.90;;;;;;5039380;28;20132;-66
2021/01/28 05:28:42;;;;;;;0.60;0.50;;;0.40;99.90;;;;;;5041769;28;20392;-64
2021/01/28 05:31:32;;;;;;;0.40;0.35;;;0.50;99.90;;;;;;5034830;28;20052;-67
2021/01/28 05:34:26;;;;;;;0.38;0.38;;;0.50;99.90;;;;;;5035778;28;20037;-68
2021/01/28 05:37:02;;;;;;;0.55;0.40;;;0.50;99.90;;;;;;5040375;28;20287;-70
2021/01/28 05:39:49;;;;;;;0.80;0.65;;;0.50;99.90;;;;;;5033072;28;20049;-70
2021/01/28 05:42:29;;;;;;;0.70;0.60;;;0.50;99.90;;;;;;5047738;28;20485;-70
2021/01/28 05:45:21;;;;;;;0.73;0.60;;;0.50;99.90;;;;;;5035260;28;20507;-64
2021/01/28 05:48:23;;;;;;;1.02;0.80;;;0.50;99.90;;;;;;5032987;28;20515;-65
2021/01/28 05:51:14;;;;;;;0.70;0.65;;;0.50;99.90;;;;;;5050969;28;20219;-65
2021/01/28 05:54:04;;;;;;;0.70;0.70;;;0.50;99.90;;;;;;5035720;28;20047;-66
2021/01/28 05:57:31;;;;;;;1.52;1.23;;;0.50;99.90;;;;;;5036871;28;20313;-65
2021/01/28 06:00:31;;;;;;;1.33;1.10;;;0.50;99.90;;;;;;5027785;28;20489;-69
2021/01/28 06:03:03;;;;;;;1.95;1.27;;;0.50;99.90;;;;;;5044995;28;20033;-65
2021/01/28 06:06:13;;;;;;;1.98;1.10;;;0.50;99.90;;;;;;5033099;28;20192;-64
2021/01/28 06:09:10;;;;;;;1.20;1.10;;;0.50;99.90;;;;;;5033313;28;20479;-65
2021/01/28 06:11:48;;;;;;;1.40;1.23;;;0.50;99.90;;;;;;5045360;28;20122;-69
2021/01/28 06:14:40;;;;;;;3.65;1.40;;;0.50;99.90;;;;;;5035650;28;20083;-65
2021/01/28 06:17:28;;;;;;;1.30;1.20;;;0.50;99.90;;;;;;5037995;28;20044;-65
2021/01/28 06:20:26;;;;;;;2.05;1.52;;;0.50;99.90;;;;;;5035956;28;20092;-64
2021/01/28 06:23:29;;;;;;;1.17;1.08;;;0.50;99.90;;;;;;5033692;28;20063;-67
2021/01/28 06:26:46;;;;;;;1.17;1.08;;;0.50;99.90;;;;;;5036217;28;20045;-66
2021/01/28 06:29:47;;;;;;;1.55;1.27;;;0.50;99.90;;;;;;5033021;28;20055;-65
2021/01/28 06:32:16;;;;;;;1.67;1.58;;;0.50;99.90;;;;;;4996119;28;20406;-69
2021/01/28 06:35:19;;;;;;;1.75;1.10;;;0.50;99.90;;;;;;5039901;28;20052;-67
2021/01/28 06:38:40;;;;;;;1.30;1.20;;;0.50;99.90;;;;;;5035402;28;20591;-71
2021/01/28 06:41:32;;;;;;;1.50;1.27;;;0.50;99.90;;;;;;5016547;28;20049;-67
2021/01/28 06:44:25;;;;;;;1.40;0.82;;;0.50;99.90;;;;;;5032235;28;20126;-65
2021/01/28 06:47:22;;;;;;;1.40;1.10;;;0.50;99.90;;;;;;5020349;28;20378;-66
2021/01/28 06:50:48;;;;;;;1.67;1.20;;;0.50;99.90;;;;;;5026229;28;20139;-67
2021/01/28 06:53:35;;;;;;;1.15;1.05;;;0.50;99.90;;;;;;5033023;28;20128;-65
2021/01/28 06:56:53;;;;;;;1.17;1.05;;;0.50;99.90;;;;;;5035588;28;20041;-67
2021/01/28 06:59:50;;;;;;;1.95;1.75;;;0.50;99.90;;;;;;5033025;28;20047;-66
2021/01/28 07:02:47;;;;;;;3.03;1.80;;;0.50;99.90;;;;;;5033390;28;20098;-66
2021/01/28 07:06:02;;;;;;;2.95;2.40;;;0.50;99.90;;;;;;5038582;28;20108;-66
2021/01/28 07:08:52;;;;;;;2.40;2.20;;;0.50;99.90;;;;;;5034935;28;20120;-69
2021/01/28 07:11:28;;;;;;;2.85;2.53;;;0.50;99.90;;;;;;5039616;28;20041;-66
2021/01/28 07:14:18;;;;;;;2.75;2.30;;;0.50;99.90;;;;;;5037633;28;20053;-66
2021/01/28 07:17:20;;;;;;;2.50;2.10;;;0.50;99.90;;;;;;5037626;28;20087;-68
2021/01/28 07:20:00;;;;;;;3.25;2.47;;;0.50;99.90;;;;;;5040054;28;20077;-70
2021/01/28 07:22:35;;;;;;;3.67;2.90;;;0.60;99.90;;;;;;5031221;28;20045;-65
2021/01/28 07:25:29;;;;;;;5.50;3.35;;;0.60;99.90;;;;;;5039297;28;20232;-67
2021/01/28 07:28:00;;;;;;;5.63;4.38;;;0.60;99.90;;;;;;5036411;28;20053;-65
2021/01/28 07:31:13;;;;;;;6.28;3.65;;;0.60;99.90;;;;;;5039590;28;20049;-65
2021/01/28 07:34:08;;;;;;;3.90;3.50;;;0.60;99.90;;;;;;5035062;28;20049;-67
2021/01/28 07:36:50;;;;;;;3.72;3.20;;;0.60;99.90;;;;;;5038528;28;20056;-65
2021/01/28 07:39:37;;;;;;;3.75;3.28;;;0.60;99.90;;;;;;5041310;28;20205;-66
2021/01/28 07:42:25;;;;;;;3.00;2.70;;;0.60;99.90;;;;;;5035702;28;20545;-65
2021/01/28 07:45:31;;;;;;;3.88;3.25;;;0.70;99.90;;;;;;5031458;28;21609;-68
2021/01/28 07:48:28;;;;;;;3.88;3.05;;;0.70;99.90;;;;;;5040381;28;20045;-69
2021/01/28 07:51:29;;;;;;;2.85;2.65;;;0.70;99.90;;;;;;5037549;28;20041;-67
2021/01/28 07:53:57;;;;;;;2.80;2.10;;;0.70;99.90;;;;;;5038072;28;21413;-65
2021/01/28 07:56:35;;;;;;;2.65;2.45;;;0.70;99.90;;;;;;5038370;28;20069;-70
2021/01/28 07:59:31;;;;;;;2.45;2.00;;;0.70;99.90;;;;;;5038346;28;20476;-70
2021/01/28 08:02:29;;;;;;;2.28;1.83;;;0.70;99.90;;;;;;5027798;28;20053;-66
2021/01/28 08:05:21;;;;;;;2.15;1.95;;;0.80;99.90;;;;;;5034661;28;20072;-70
2021/01/28 08:08:10;;;;;;;1.27;1.17;;;0.80;99.90;;;;;;5037639;28;21041;-68
2021/01/28 08:10:40;;;;;;;2.03;1.63;;;0.80;99.90;;;;;;5037915;28;20672;-69
2021/01/28 08:13:19;;;;;;;1.35;1.15;;;0.80;99.90;;;;;;5036206;28;20048;-67
2021/01/28 08:15:52;;;;;;;3.90;2.10;;;0.90;99.90;;;;;;5040051;28;20053;-70
2021/01/28 08:18:40;;;;;;;2.13;1.90;;;0.90;99.90;;;;;;5032931;28;20045;-67
2021/01/28 08:21:11;;;;;;;1.73;1.60;;;0.90;99.90;;;;;;5035785;28;20049;-66
2021/01/28 08:23:41;;;;;;;1.70;1.60;;;0.90;99.90;;;;;;5035488;28;20045;-68
2021/01/28 08:26:13;;;;;;;1.50;1.40;;;1.00;99.90;;;;;;5038497;28;20140;-67
2021/01/28 08:28:43;;;;;;;1.75;1.35;;;1.00;99.90;;;;;;5032046;28;20049;-66
2021/01/28 08:31:40;;;;;;;1.40;1.30;;;1.00;99.90;;;;;;5038457;28;20048;-66
2021/01/28 08:34:12;;;;;;;1.98;1.60;;;1.10;99.90;;;;;;5039035;28;20053;-67
2021/01/28 08:37:11;;;;;;;1.63;1.38;;;1.10;99.90;;;;;;5036711;28;20717;-65
2021/01/28 08:39:37;;;;;;;2.33;1.95;;;1.10;99.90;;;;;;5037909;28;20045;-67
2021/01/28 08:42:08;;;;;;;1.40;1.20;;;1.00;99.90;;;;;;5039295;28;20064;-69
2021/01/28 08:44:35;;;;;;;;;;;1.00;99.90;;;;;;5037038;28;20060;-66
2021/01/28 08:47:23;;;;;;;2.00;1.65;;;1.00;99.90;;;;;;5039269;28;19952;-65
2021/01/28 08:50:01;;;;;;;1.92;1.60;;;1.00;99.90;;;;;;5038771;28;20651;-67
2021/01/28 08:52:28;;;;;;;1.67;1.20;;;1.00;99.90;;;;;;5034136;28;20136;-68
2021/01/28 08:54:55;;;;;;;2.85;1.88;;;1.00;99.90;;;;;;5041310;28;20076;-65
2021/01/28 08:57:40;;;;;;;1.85;1.30;;;1.10;99.90;;;;;;5037652;28;20111;-66
2021/01/28 09:00:09;;;;;;;1.95;1.75;;;1.10;99.90;;;;;;5033487;28;20540;-67
2021/01/28 09:02:40;;;;;;;1.70;1.60;;;1.20;99.90;;;;;;5032635;28;20069;-66
2021/01/28 09:05:20;;;;;;;;;;;1.20;99.90;;;;;;5037217;28;20059;-67
2021/01/28 09:07:54;;;;;;;1.90;1.45;;;1.30;99.90;;;;;;5035579;28;19928;-66
2021/01/28 09:10:30;;;;;;;1.50;1.30;;;1.30;99.90;;;;;;5036938;28;20049;-69
2021/01/28 09:13:20;;;;;;;1.55;1.42;;;1.20;99.90;;;;;;5038231;28;20073;-66
2021/01/28 09:15:49;;;;;;;2.05;1.30;;;1.30;99.90;;;;;;5039077;28;20574;-67
2021/01/28 09:18:33;;;;;;;1.58;1.30;;;1.30;99.90;;;;;;5036074;28;20053;-67
2021/01/28 09:21:11;;;;;;;1.40;1.30;;;1.30;99.90;;;;;;5035441;28;20049;-69
2021/01/28 09:23:57;;;;;;;1.40;1.25;;;1.30;99.90;;;;;;5039135;28;20095;-66
2021/01/28 09:26:27;;;;;;;1.98;1.58;;;1.30;99.90;;;;;;5030758;28;20049;-70
2021/01/28 09:28:53;;;;;;;2.45;1.80;;;1.30;99.90;;;;;;5040222;28;20044;-65
2021/01/28 09:31:29;;;;;;;2.13;1.77;;;1.20;99.90;;;;;;5034981;28;20045;-66
2021/01/28 09:34:09;;;;;;;2.38;1.92;;;1.30;99.90;;;;;;5036677;28;20056;-69
2021/01/28 09:36:37;;;;;;;1.10;1.00;;;1.30;99.90;;;;;;5036072;28;20068;-65
2021/01/28 09:39:20;;;;;;;2.05;1.85;;;1.30;99.90;;;;;;5036945;28;20054;-66
2021/01/28 09:41:53;;;;;;;1.88;1.70;;;1.30;99.90;;;;;;5034317;28;20049;-68
2021/01/28 09:44:31;;;;;;;2.08;1.33;;;1.30;99.90;;;;;;5033400;28;20059;-65
2021/01/28 09:47:28;;;;;;;2.05;1.85;;;1.30;99.90;;;;;;5035640;28;20138;-66
2021/01/28 09:49:58;;;;;;;2.35;2.03;;;1.40;99.90;;;;;;5035403;28;20045;-68
2021/01/28 09:52:29;;;;;;;1.88;1.60;;;1.40;99.90;;;;;;5033517;28;20045;-67
2021/01/28 09:54:58;;;;;;;3.17;1.55;;;1.40;99.90;;;;;;5033553;28;20053;-67
2021/01/28 09:57:26;;;;;;;2.42;2.22;;;1.40;99.90;;;;;;5034307;28;20041;-66
2021/01/28 09:59:57;;;;;;;1.67;1.30;;;1.40;99.90;;;;;;5039980;28;20060;-68
2021/01/28 10:02:55;;;;;;;2.40;2.05;;;1.30;99.90;;;;;;5032487;28;20068;-66
2021/01/28 10:05:28;;;;;;;2.22;2.03;;;1.30;99.90;;;;;;5043123;28;20517;-65
2021/01/28 10:07:56;;;;;;;2.20;2.00;;;1.40;99.90;;;;;;5033135;28;20052;-65
2021/01/28 10:10:26;;;;;;;3.30;2.10;;;1.40;99.90;;;;;;5033257;28;20072;-68
2021/01/28 10:12:59;;;;;;;2.28;1.55;;;1.40;99.90;;;;;;5030938;28;20057;-67
2021/01/28 10:15:26;;;;;;;2.63;2.40;;;1.40;99.90;;;;;;5036102;28;20338;-65
2021/01/28 10:17:55;;;;;;;2.28;2.08;;;1.50;99.90;;;;;;5031710;28;20555;-67
2021/01/28 10:20:23;;;;;;;2.65;2.20;;;1.50;99.90;;;;;;5033347;28;20076;-66
2021/01/28 10:22:51;;;;;;;3.05;2.17;;;1.50;99.90;;;;;;5029848;28;20053;-66
2021/01/28 10:25:20;;;;;;;2.75;2.40;;;1.50;99.90;;;;;;5034533;28;20129;-65
2021/01/28 10:27:46;;;;;;;3.45;2.20;;;1.50;99.90;;;;;;5032951;28;20148;-66
2021/01/28 10:30:16;;;;;;;2.65;2.08;;;1.40;99.90;;;;;;5034909;28;20135;-67
2021/01/28 10:32:46;;;;;;;2.67;2.45;;;1.40;99.90;;;;;;5036356;28;20045;-66
2021/01/28 10:35:19;;;;;;;2.15;1.80;;;1.40;99.90;;;;;;5033178;28;20049;-66
2021/01/28 10:37:45;;;;;;;3.08;1.85;;;1.40;99.90;;;;;;5036905;28;20049;-68
2021/01/28 10:40:12;;;;;;;2.15;1.70;;;1.40;99.90;;;;;;5031239;28;20052;-67
2021/01/28 10:42:40;;;;;;;1.88;1.65;;;1.40;99.90;;;;;;5041735;28;20122;-66
2021/01/28 10:45:14;;;;;;;1.55;1.35;;;1.50;99.90;;;;;;5032731;28;20053;-68
2021/01/28 10:47:40;;;;;;;1.50;1.40;;;1.50;99.90;;;;;;5041083;28;20045;-66
2021/01/28 10:50:25;;;;;;;1.63;1.35;;;1.50;99.90;;;;;;5033393;28;20051;-67
2021/01/28 10:53:10;;;;;;;1.30;1.17;;;1.50;99.90;;;;;;5036938;28;20068;-65
2021/01/28 10:55:37;;;;;;;1.48;1.38;;;1.50;99.90;;;;;;5032824;28;20215;-68
2021/01/28 10:58:04;;;;;;;1.98;1.55;;;1.60;99.90;;;;;;5026825;28;20135;-67
2021/01/28 11:00:31;;;;;;;3.50;1.52;;;1.60;99.90;;;;;;5030756;28;20053;-67
2021/01/28 11:02:59;;;;;;;1.40;1.30;;;1.70;99.90;;;;;;5034661;28;20056;-67
2021/01/28 11:05:32;;;;;;;1.77;1.33;;;1.70;99.90;;;;;;5032408;28;20053;-65
2021/01/28 11:07:58;;;;;;;1.63;1.50;;;1.70;99.90;;;;;;5034251;28;20060;-71
2021/01/28 11:10:26;;;;;;;1.52;1.10;;;1.70;99.90;;;;;;5033984;28;20056;-70
2021/01/28 11:12:54;;;;;;;1.40;1.10;;;1.70;99.90;;;;;;5033211;28;20045;-72
2021/01/28 11:15:22;;;;;;;0.90;0.90;;;1.70;99.90;;;;;;5033069;28;20427;-78
2021/01/28 11:17:50;;;;;;;0.82;0.82;;;1.70;99.90;;;;;;5036162;28;20053;-72
2021/01/28 11:20:17;;;;;;;1.98;1.08;;;1.70;99.90;;;;;;5033838;28;20053;-68
2021/01/28 11:22:44;;;;;;;1.08;0.65;;;1.70;99.90;;;;;;5033673;28;20068;-67
2021/01/28 11:25:15;;;;;;;1.05;0.85;;;1.70;99.90;;;;;;5036846;28;20068;-68
2021/01/28 11:27:42;;;;;;;0.80;0.63;;;1.70;99.90;;;;;;5030025;28;20051;-68
2021/01/28 11:30:11;;;;;;;1.20;1.10;;;1.70;99.90;;;;;;5035144;28;20053;-66
2021/01/28 11:32:37;;;;;;;1.27;0.90;;;1.70;99.90;;;;;;5030947;28;20519;-64
2021/01/28 11:35:05;;;;;;;0.70;0.70;;;1.80;99.90;;;;;;5036757;28;20776;-62
2021/01/28 11:37:31;;;;;;;3.65;1.45;;;1.80;99.90;;;;;;5031879;28;20049;-67
2021/01/28 11:39:58;;;;;;;0.95;0.85;;;1.80;99.90;;;;;;5035628;28;20745;-67
2021/01/28 11:42:25;;;;;;;0.88;0.80;;;1.80;99.90;;;;;;5036291;28;20160;-68
2021/01/28 11:44:51;;;;;;;1.25;1.15;;;1.80;99.90;;;;;;5038588;28;20041;-65
2021/01/28 11:47:18;;;;;;;1.27;1.17;;;1.80;99.90;;;;;;5038198;28;20059;-65
2021/01/28 11:49:45;;;;;;;1.52;1.40;;;1.80;99.90;;;;;;5034880;28;21251;-70
2021/01/28 11:52:12;;;;;;;1.23;1.10;;;1.80;99.90;;;;;;5034920;28;21096;-67
2021/01/28 11:54:38;;;;;;;1.65;1.55;;;1.80;99.90;;;;;;5038297;28;20056;-66
2021/01/28 11:57:05;;;;;;;2.72;2.00;;;1.80;99.90;;;;;;5034711;28;20048;-71
2021/01/28 11:59:31;;;;;;;1.80;1.35;;;1.80;99.90;;;;;;5035468;28;20917;-66
2021/01/28 12:01:58;;;;;;;1.15;0.90;;;1.80;99.90;;;;;;5041316;28;20048;-66
2021/01/28 12:04:24;;;;;;;1.50;1.40;;;1.80;99.90;;;;;;5034198;28;20045;-68
2021/01/28 12:06:51;;;;;;;2.05;1.85;;;1.70;99.90;;;;;;5035632;28;20110;-69
2021/01/28 12:09:17;;;;;;;1.98;1.38;;;1.70;99.90;;;;;;5033863;28;20106;-67
2021/01/28 12:11:44;;;;;;;2.78;1.80;;;1.70;99.90;;;;;;5038609;28;20549;-70
2021/01/28 12:14:10;;;;;;;1.60;1.50;;;1.80;99.90;;;;;;5037327;28;20385;-67
2021/01/28 12:16:37;;;;;;;2.78;1.40;;;1.80;99.90;;;;;;5035510;28;20132;-67
2021/01/28 12:19:03;;;;;;;1.60;1.50;;;1.80;99.90;;;;;;5037727;28;20506;-68
2021/01/28 12:21:30;;;;;;;2.30;1.98;;;1.80;99.90;;;;;;5033780;28;20069;-66
2021/01/28 12:23:56;;;;;;;1.83;1.65;;;1.80;99.90;;;;;;5032664;28;20056;-67
2021/01/28 12:26:23;;;;;;;1.75;1.58;;;1.80;99.90;;;;;;5032537;28;20778;-68
2021/01/28 12:28:50;;;;;;;1.98;1.67;;;1.70;99.90;;;;;;5039126;28;20410;-70
2021/01/28 12:31:17;;;;;;;2.05;1.85;;;1.70;99.90;;;;;;5037970;28;20052;-73
2021/01/28 12:33:43;;;;;;;2.03;1.83;;;1.70;99.90;;;;;;5033555;28;20710;-65
2021/01/28 12:36:11;;;;;;;2.70;1.92;;;1.60;99.90;;;;;;5039350;28;20049;-71
2021/01/28 12:38:39;;;;;;;2.30;2.08;;;1.70;99.90;;;;;;5036457;28;20052;-70
2021/01/28 12:41:06;;;;;;;2.83;2.13;;;1.70;99.90;;;;;;5036683;28;20370;-71
2021/01/28 12:43:32;;;;;;;2.90;2.20;;;1.60;99.90;;;;;;5036154;28;20037;-71
2021/01/28 12:45:59;;;;;;;3.40;2.67;;;1.60;99.90;;;;;;5038294;28;20056;-75
2021/01/28 12:48:26;;;;;;;2.72;2.53;;;1.60;99.90;;;;;;5031949;28;20045;-71
2021/01/28 12:50:53;;;;;;;3.60;2.08;;;1.50;99.90;;;;;;5037809;28;20144;-77
2021/01/28 12:53:20;;;;;;;2.95;2.60;;;1.50;99.90;;;;;;5033550;28;20068;-71
2021/01/28 12:55:48;;;;;;;2.75;2.50;;;1.50;99.90;;;;;;5032113;28;20045;-70
2021/01/28 12:58:14;;;;;;;3.72;2.65;;;1.40;99.90;;;;;;5035817;28;20059;-72
2021/01/28 13:00:42;;;;;;;3.13;2.83;;;1.40;99.90;;;;;;5036872;28;20071;-75
2021/01/28 13:03:12;;;;;;;3.17;2.88;;;1.40;99.90;;;;;;5035705;28;22435;-75
2021/01/28 13:05:39;;;;;;;3.70;2.50;;;1.40;99.90;;;;;;5034956;28;20127;-65
2021/01/28 13:08:06;;;;;;;4.35;3.03;;;1.40;99.90;;;;;;5037887;28;20634;-69
2021/01/28 13:10:33;;;;;;;3.05;2.75;;;1.40;99.90;;;;;;5033330;28;20465;-73
2021/01/28 13:13:00;;;;;;;3.22;2.92;;;1.40;99.90;;;;;;5039334;28;20113;-67
2021/01/28 13:15:28;;;;;;;2.42;2.22;;;1.40;99.90;;;;;;5031043;28;20049;-69
2021/01/28 13:17:57;;;;;;;3.28;2.65;;;1.40;99.90;;;;;;5037559;28;20687;-66
2021/01/28 13:20:24;;;;;;;2.60;2.40;;;1.40;99.90;;;;;;5036873;28;20072;-68
2021/01/28 13:22:51;;;;;;;3.05;2.72;;;1.30;99.90;;;;;;5034092;28;20041;-65
2021/01/28 13:25:18;;;;;;;4.13;2.47;;;1.30;99.90;;;;;;5036327;28;20068;-69
2021/01/28 13:27:45;;;;;;;3.80;2.72;;;1.30;99.90;;;;;;5037468;28;20128;-69
2021/01/28 13:30:13;;;;;;;2.28;1.98;;;1.30;99.90;;;;;;5034941;28;20507;-70
2021/01/28 13:32:40;;;;;;;4.28;2.15;;;1.30;99.90;;;;;;5035922;28;20170;-67
2021/01/28 13:35:11;;;;;;;2.22;2.03;;;1.30;99.90;;;;;;5032620;28;20045;-71
2021/01/28 13:37:37;;;;;;;3.83;2.85;;;1.30;99.90;;;;;;5035434;28;20076;-68
2021/01/28 13:40:04;;;;;;;2.80;2.60;;;1.20;99.90;;;;;;5038954;28;20464;-69
2021/01/28 13:42:31;;;;;;;2.92;2.38;;;1.20;99.90;;;;;;5032488;28;20515;-68
2021/01/28 13:44:57;;;;;;;5.78;2.95;;;1.20;99.90;;;;;;5037004;28;20163;-69